アテネ国際空港の過去48時間の天気

アテネ国際空港 (Athens Eleftherios Venizelos International Airport)

現在時刻: 5/28 06:46 EEST (5/28 03:46 UTC) 以下の時間は現地時間です。

過去48時間のMETAR気象情報
時間 風向 風速(m/s) 視程 気温(℃) 湿度(%) 気圧(hPa) 天気現象
28 06:20 不定 2 10km以上 14 63 1019
28 05:50 不定 1 10km以上 14 67 1019
28 05:20 不定 2 10km以上 13 72 1019
28 04:50 2 10km以上 15 59 1019
28 04:20 2 10km以上 15 63 1019
28 03:50 2 10km以上 15 63 1019
28 03:20 北北東 4 10km以上 15 63 1019
28 02:50 北北東 2 10km以上 15 63 1019
28 02:20 不定 1 10km以上 15 59 1019
28 01:50 2 10km以上 15 59 1020
28 01:20 北西 2 10km以上 14 67 1020
28 00:50 北北西 2 10km以上 15 63 1020
28 00:20 北北西 2 10km以上 14 67 1020 弱い雨
27 23:50 4 10km以上 14 67 1021 弱い雨
27 23:20 5 10km以上 14 72 1021
27 22:50 北東 6 10km以上 14 72 1021
27 22:20 東北東 7 10km以上 15 67 1021
27 21:50 北西 2 10km以上 16 59 1020
27 21:20 不定 1 10km以上 14 77 1020
27 20:50 2 10km以上 15 72 1020
27 20:20 北東 2 10km以上 16 68 1019
27 19:50 東北東 4 10km以上 16 68 1019
27 19:20 4 10km以上 18 49 1019
27 18:50 4 10km以上 18 49 1019
27 18:20 5 10km以上 18 49 1018
27 17:50 5 10km以上 19 46 1019
27 17:20 2 10km以上 17 63 1019
27 16:50 6 10km以上 19 46 1019
27 16:20 7 10km以上 19 46 1018
27 15:50 6 10km以上 19 46 1019
27 15:20 6 10km以上 18 49 1018
27 14:50 北北東 10 10km以上 18 49 1018
27 14:20 7 10km以上 19 49 1018
27 13:50 7 10km以上 19 49 1018
27 13:20 8 10km以上 18 49 1019
27 12:50 北北西 7 10km以上 18 52 1018
27 12:20 5 10km以上 18 49 1018
27 11:50 6 10km以上 17 52 1018
27 11:20 5 10km以上 17 52 1018
27 10:50 5 10km以上 17 52 1018
27 10:20 北北西 4 10km以上 16 59 1017
27 09:50 北北西 4 10km以上 15 63 1017
27 09:20 北北西 5 10km以上 15 63 1017
27 08:50 北北西 3 10km以上 15 63 1017
27 08:20 4 10km以上 15 59 1017
27 07:50 北北西 3 10km以上 14 63 1017
27 07:20 北西 3 10km以上 14 63 1017
27 06:50 西南西 3 10km以上 13 67 1016
27 06:20 北西 4 10km以上 13 67 1016
27 05:50 北北西 6 10km以上 13 72 1016
27 05:20 北西 6 10km以上 13 67 1016
27 04:50 北西 5 10km以上 13 72 1016
27 04:20 北西 4 10km以上 13 77 1016
27 03:50 西北西 2 10km以上 12 77 1016
27 03:20 不定 2 10km以上 12 77 1016
27 02:50 西 2 10km以上 12 82 1016
27 02:20 西 3 10km以上 11 82 1017
27 01:50 西 2 10km以上 12 82 1017
27 01:20 西南西 2 10km以上 12 82 1017
27 00:50 北西 1 10km以上 12 88 1017
27 00:20 不定 1 10km以上 12 88 1017
26 23:50 不定 2 10km以上 13 82 1018
26 23:20 不定 2 10km以上 13 82 1018
26 22:50 西南西 2 10km以上 13 82 1018
26 22:20 不定 1 10km以上 13 82 1018
26 21:50 北東 2 9000m 13 77 1018 弱い雨
26 21:20 4 8000m 13 77 1018 弱い雨
26 20:50 北北西 5 8000m 14 77 1018 弱い雨
26 20:20 西北西 6 8000m 15 77 1018 弱い雨
26 19:50 西 3 10km以上 17 68 1017 弱い雨
26 19:20 西南西 2 10km以上 17 68 1017
26 18:50 不定 1 10km以上 17 68 1017
26 18:20 南南西 2 10km以上 16 72 1017
26 17:50 南西 2 10km以上 16 68 1017
26 17:20 不定 1 10km以上 17 63 1017
26 16:50 北北東 2 10km以上 17 63 1018
26 16:20 北北東 3 10km以上 16 68 1018 弱い雨
26 15:50 5 10km以上 16 68 1018
26 15:20 7 9000m 17 59 1018 弱い雷雨
26 14:50 北北東 9 10km以上 18 52 1018 弱い雷雨
26 14:20 北東 11 10km以上 19 52 1018
26 13:50 東北東 8 10km以上 21 49 1018
26 13:20 北東 7 10km以上 21 53 1018
26 12:50 北東 7 10km以上 21 49 1018
26 12:20 北北東 7 10km以上 22 46 1018
26 11:50 北北東 7 10km以上 21 49 1018
26 11:20 北東 7 10km以上 21 53 1018
26 10:50 北北東 6 10km以上 20 56 1018
26 10:20 北北東 6 10km以上 19 60 1018
26 09:50 北北東 5 10km以上 18 64 1018
26 09:20 北北東 5 10km以上 18 64 1018
26 08:50 北北東 4 10km以上 18 64 1018
26 08:20 不定 1 10km以上 17 72 1018
26 07:50 不定 1 10km以上 16 72 1018
26 07:20 不定 1 10km以上 16 82 1018
26 06:50 不定 1 10km以上 15 88 1018
LGAV 280320Z VRB03KT 9999 FEW030 14/07 Q1019 NOSIG
LGAV 280250Z VRB02KT 9999 FEW030 14/08 Q1019 NOSIG
LGAV 280220Z VRB03KT 9999 FEW030 13/08 Q1019 NOSIG
LGAV 280150Z 35004KT 9999 FEW030 15/07 Q1019 NOSIG
LGAV 280120Z 35004KT 9999 FEW030 15/08 Q1019 NOSIG
LGAV 280050Z 35004KT 9999 FEW030 15/08 Q1019 NOSIG
LGAV 280020Z 02007KT 9999 FEW030 15/08 Q1019 NOSIG
LGAV 272350Z 03004KT 330V060 CAVOK 15/08 Q1019 NOSIG
LGAV 272320Z VRB02KT 9999 FEW030 15/07 Q1019 NOSIG
LGAV 272250Z 35004KT 320V020 9999 FEW030 15/07 Q1020 NOSIG
LGAV 272220Z 32004KT 9999 FEW030 14/08 Q1020 NOSIG
LGAV 272150Z 33003KT 9999 FEW030 15/08 Q1020 NOSIG
LGAV 272120Z 33004KT 9999 -RA SCT030 BKN070 14/08 Q1020 NOSIG
LGAV 272050Z 35007KT 9999 -RA SCT030 BKN070 14/08 Q1021 NOSIG
LGAV 272020Z 01009KT 9999 SCT030 14/09 Q1021 NOSIG
LGAV 271950Z 04011KT CAVOK 14/09 Q1021 NOSIG
LGAV 271920Z 06014G24KT 9999 SCT030 15/09 Q1021 NOSIG
LGAV 271850Z 32004KT 290V350 9999 FEW030 16/08 Q1020 NOSIG
LGAV 271820Z VRB02KT 9999 FEW030 14/10 Q1020 NOSIG
LGAV 271750Z 08003KT 9999 FEW030 15/10 Q1020 NOSIG
LGAV 271720Z 05004KT 9999 FEW030 16/10 Q1019 NOSIG
LGAV 271650Z 07007KT 9999 FEW030 16/10 Q1019 NOSIG
LGAV 271620Z 01007KT 9999 SCT030 18/07 Q1019 NOSIG
LGAV 271550Z 01008KT 9999 SCT030 18/07 Q1019 NOSIG
LGAV 271520Z 36009KT 330V030 9999 SCT030 18/07 Q1018 NOSIG
LGAV 271450Z 01010KT 340V050 9999 SCT030 19/07 Q1019 NOSIG
LGAV 271420Z 09004KT 060V130 9999 SCT030 17/10 Q1019 NOSIG
LGAV 271350Z 36012KT 330V030 9999 SCT030 19/07 Q1019 NOSIG
LGAV 271320Z 01014G24KT 330V030 9999 SCT030 BKN070 19/07 Q1018 NOSIG
LGAV 271250Z 36012KT 9999 SCT030 BKN070 19/07 Q1019 NOSIG
LGAV 271220Z 01012KT 9999 SCT030 BKN070 18/07 Q1018 NOSIG
LGAV 271150Z 02019KT 9999 SCT030 BKN070 18/07 Q1018 NOSIG
LGAV 271120Z 01013G23KT 9999 SCT030 BKN070 19/08 Q1018 NOSIG
LGAV 271050Z 01013KT 330V050 9999 SCT030 BKN070 19/08 Q1018 NOSIG
LGAV 271020Z 36015KT 9999 SCT030 BKN070 18/07 Q1019 NOSIG
LGAV 270950Z 33013G23KT 9999 FEW030 BKN070 18/08 Q1018 NOSIG
LGAV 270920Z 35009G19KT 310V020 9999 SCT030 BKN070 18/07 Q1018 NOSIG
LGAV 270850Z 36011KT 330V030 9999 FEW030 17/07 Q1018 NOSIG
LGAV 270820Z 36010KT 330V030 9999 SCT030 BKN070 17/07 Q1018 NOSIG
LGAV 270750Z 35009KT 320V020 9999 SCT030 BKN070 17/07 Q1018 NOSIG
LGAV 270720Z 34008KT 9999 SCT030 BKN070 16/08 Q1017 NOSIG
LGAV 270650Z 34007KT 9999 SCT030 BKN070 15/08 Q1017 NOSIG
LGAV 270620Z 33009KT 9999 SCT030 BKN070 15/08 Q1017 NOSIG
LGAV 270550Z 34006KT 9999 SCT030 BKN070 15/08 Q1017 NOSIG
LGAV 270520Z 36007KT 9999 SCT030 BKN070 15/07 Q1017 NOSIG
LGAV 270450Z 33006KT 9999 SCT030 BKN070 14/07 Q1017 NOSIG
LGAV 270420Z 32005KT 9999 BKN020 14/07 Q1017 NOSIG
LGAV 270350Z 25005KT 190V290 9999 BKN020 13/07 Q1016 NOSIG
LGAV 270320Z 32008KT 9999 SCT020 13/07 Q1016 NOSIG
LGAV 270250Z 33011KT 9999 SCT020 13/08 Q1016 NOSIG
LGAV 270220Z 32012KT 9999 FEW025 13/07 Q1016 NOSIG
LGAV 270150Z 32010KT 9999 SCT025 13/08 Q1016 NOSIG
LGAV 270120Z 32008KT 9999 SCT025 13/09 Q1016 NOSIG
LGAV 270050Z 30004KT 9999 FEW025 12/08 Q1016 NOSIG
LGAV 270020Z VRB03KT 9999 FEW025 12/08 Q1016 NOSIG
LGAV 262350Z 27004KT 9999 FEW025 12/09 Q1016 NOSIG
LGAV 262320Z 27005KT 9999 SCT025 11/08 Q1017 NOSIG
LGAV 262250Z 28004KT 9999 SCT025 12/09 Q1017 NOSIG
LGAV 262220Z 25003KT 9999 FEW020 12/09 Q1017 NOSIG
LGAV 262150Z 31002KT 9999 FEW020 12/10 Q1017 NOSIG
LGAV 262120Z VRB01KT 9999 FEW020 SCT035 12/10 Q1017 NOSIG
LGAV 262050Z VRB03KT 9999 FEW020 SCT035 13/10 Q1018 NOSIG
LGAV 262020Z VRB03KT 9999 FEW020 SCT030 13/10 Q1018 NOSIG
LGAV 261950Z 25004KT 9999 FEW018 SCT030 13/10 Q1018 NOSIG
LGAV 261920Z VRB02KT 9999 FEW018 SCT030 13/10 Q1018 NOSIG
LGAV 261850Z 04004KT 9000 -RA FEW018 BKN030 BKN070 13/09 Q1018 NOSIG
LGAV 261820Z 36007KT 8000 -RA SCT018 BKN030 BKN070 13/09 Q1018 NOSIG
LGAV 261750Z 33010KT 8000 -RA SCT017TCU BKN030 BKN070 14/10 Q1018 NOSIG
LGAV 261720Z 30011KT 8000 -RA SCT017TCU BKN030 BKN070 15/11 Q1018 NOSIG
LGAV 261650Z 28006KT 9999 -RA SCT017TCU BKN030 BKN070 17/11 Q1017 NOSIG
LGAV 261620Z 25003KT 9999 SCT018 BKN030 BKN070 17/11 Q1017 NOSIG
LGAV 261550Z VRB02KT 9999 FEW018 BKN030 BKN070 17/11 Q1017 NOSIG
LGAV 261520Z 20003KT 9999 FEW020 SCT030 BKN070 16/11 Q1017 NOSIG
LGAV 261450Z 22004KT 9999 FEW020 SCT030 BKN070 16/10 Q1017 NOSIG
LGAV 261420Z VRB01KT 9999 FEW018 SCT030 BKN070 17/10 Q1017 NOSIG
LGAV 261350Z 03004KT 340V080 9999 FEW018 BKN030 BKN070 17/10 Q1018 NOSIG
LGAV 261320Z 02005KT 9999 -RA FEW018 BKN035 16/10 Q1018 NOSIG
LGAV 261250Z 36010KT 9999 FEW018TCU BKN035 16/10 Q1018 NOSIG
LGAV 261220Z 01014KT 9000 -TSRA SCT018CB BKN030 17/09 Q1018 BECMG NSW
LGAV 261150Z 02017KT 9999 -TSRA SCT018CB BKN030 18/08 Q1018 NOSIG
LGAV 261120Z 04022KT 010V070 9999 TS SCT015CB BKN030 19/09 Q1018 TEMPO 5000 TSRA
LGAV 261050Z 06015KT 020V080 9999 FEW018 BKN030 21/10 Q1018 BECMG 5000 TSRA FEW016CB BKN020
LGAV 261020Z 05014G25KT 020V100 9999 FEW015 SCT030 21/11 Q1018 NOSIG
LGAV 260950Z 04014KT 9999 FEW018 BKN030 21/10 Q1018 NOSIG
LGAV 260920Z 03014KT 010V070 9999 FEW015 BKN030 22/10 Q1018 NOSIG
LGAV 260850Z 03013KT 350V060 9999 FEW015 BKN030 21/10 Q1018 NOSIG
LGAV 260820Z 04013KT 360V070 9999 FEW015 SCT030 21/11 Q1018 NOSIG
LGAV 260750Z 03011KT 9999 FEW015 BKN030 20/11 Q1018 NOSIG
LGAV 260720Z 02011KT 9999 FEW015 BKN030 19/11 Q1018 NOSIG
LGAV 260650Z 02010KT 9999 FEW018 BKN030 18/11 Q1018 NOSIG
LGAV 260620Z 03010KT 9999 FEW018 BKN030 18/11 Q1018 NOSIG
LGAV 260550Z 03008KT 9999 FEW020 BKN030 18/11 Q1018 NOSIG
LGAV 260520Z VRB02KT 9999 FEW020 BKN030 17/12 Q1018 NOSIG
LGAV 260450Z VRB02KT 9999 FEW020 BKN030 16/11 Q1018 NOSIG
LGAV 260420Z VRB01KT 9999 FEW020 SCT030 16/13 Q1018 NOSIG
LGAV 260350Z VRB01KT 9999 FEW020 SCT030 15/13 Q1018 NOSIG